Terminal Aerodrome Forecast
Issued by NWS

Current Version | Previous Version | Text Only | Print | Product List | Glossary On
Versions: 1 2 3 4 5 6 7 8 9 10 11 12 13 14 15 16 17 18 19 20 21 22 23 24 25
995
FTUS41 KPHI 280557 AAA
TAFMIV
TAF AMD
KMIV 280557Z 2806/2906 VRB03KT 2SM BR BKN050
      TEMPO 2808/2812 1SM BR SCT010 BKN050
     FM281300 11006KT P6SM SCT050
     FM281700 12008KT P6SM BKN050
     FM282300 09008KT P6SM SCT010 BKN050
      TEMPO 2900/2903 BKN010 OVC050
     FM290300 08006KT P6SM OVC005=

USA.gov is the U.S. government's official web portal to all federal, state and local government web resources and services.